TAF LFMC
METAR LFMC
LFMC 080330Z AUTO 05006KT 9999 -RA ////// 07/07 Q1003=
LFMC 080300Z AUTO 06004KT 020V090 9999 -DZ ////// 07/06 Q1004=
LFMC 080230Z AUTO 09003KT 060V130 9999 ////// 07/06 Q1005=
LFMC 080200Z AUTO 06003KT 030V090 9999 -RA ////// 07/06 Q1005=
LFMC 080130Z AUTO 05004KT 020V080 9999 -RA ////// 06/06 Q1006=
WC LFMC
WS LFMC
WV LFMC